createdAt,value
2018-05-29T00:00:48.721Z,55872.24
2018-05-29T00:03:17.093Z,55862.98
2018-05-29T00:05:45.505Z,55874.29
2018-05-29T00:08:13.894Z,55867.10
2018-05-29T00:10:42.260Z,55881.49
2018-05-29T00:13:10.733Z,55868.12
2018-05-29T00:15:39.133Z,55869.15
2018-05-29T00:18:07.522Z,55878.41
2018-05-29T00:20:35.943Z,55896.91
2018-05-29T00:23:04.308Z,55885.61
2018-05-29T00:25:33.463Z,55871.21
2018-05-29T00:28:01.841Z,55884.57
2018-05-29T00:30:30.197Z,55900.00
2018-05-29T00:32:58.589Z,55874.29
2018-05-29T00:35:26.993Z,55906.17
2018-05-29T00:37:55.351Z,55858.87
2018-05-29T00:40:23.741Z,55875.32
2018-05-29T00:42:52.089Z,55870.18
2018-05-29T00:45:20.490Z,55868.12
2018-05-29T00:47:48.874Z,55896.91
2018-05-29T00:50:17.248Z,55883.55
2018-05-29T00:52:45.659Z,55883.55
2018-05-29T00:55:32.576Z,55910.28
2018-05-29T00:58:01.724Z,55897.94
2018-05-29T01:00:30.101Z,55888.69
2018-05-29T01:02:58.514Z,55878.41
2018-05-29T01:05:27.670Z,55882.52
2018-05-29T01:07:56.081Z,55872.24
2018-05-29T01:10:24.470Z,55869.15
2018-05-29T01:12:52.908Z,55885.61
2018-05-29T01:15:21.294Z,55877.38
2018-05-29T01:17:49.663Z,55873.27
2018-05-29T01:20:18.181Z,55886.63
2018-05-29T01:22:46.527Z,55877.38
2018-05-29T01:25:14.872Z,55909.25
2018-05-29T01:27:44.007Z,55898.97
2018-05-29T01:30:12.381Z,55904.11
2018-05-29T01:32:40.790Z,55918.50
2018-05-29T01:35:09.184Z,55876.35
2018-05-29T01:37:38.325Z,55924.68
2018-05-29T01:40:06.695Z,55886.63
2018-05-29T01:42:35.279Z,55868.12
2018-05-29T01:45:03.662Z,55892.80
2018-05-29T01:47:32.034Z,55892.80
2018-05-29T01:50:00.442Z,55868.12
2018-05-29T01:52:28.797Z,55893.83
2018-05-29T01:54:57.159Z,55881.49
2018-05-29T01:57:25.555Z,55890.75
2018-05-29T01:59:53.919Z,55912.34
2018-05-29T02:02:22.316Z,55891.77
2018-05-29T02:04:50.733Z,55871.21
2018-05-29T02:07:19.122Z,55887.66
2018-05-29T02:09:47.556Z,55876.35
2018-05-29T02:12:15.903Z,55903.08
2018-05-29T02:14:45.021Z,55892.80
2018-05-29T02:17:13.430Z,55905.14
2018-05-29T02:19:41.829Z,55917.48
2018-05-29T02:22:10.228Z,55879.43
2018-05-29T02:24:39.363Z,55897.94
2018-05-29T02:27:07.735Z,55942.16
2018-05-29T02:29:36.115Z,55882.52
2018-05-29T02:32:04.519Z,55913.36
2018-05-29T02:34:32.881Z,55911.31
2018-05-29T02:37:01.359Z,55913.36
2018-05-29T02:39:29.708Z,55917.48
2018-05-29T02:41:58.871Z,55948.32
2018-05-29T02:44:27.242Z,55911.31
2018-05-29T02:46:55.657Z,55926.73
2018-05-29T02:49:24.835Z,55898.97
2018-05-29T02:51:53.966Z,55908.23
2018-05-29T02:54:22.326Z,55905.14
2018-05-29T02:56:51.445Z,55907.20
2018-05-29T02:59:19.813Z,55892.80
2018-05-29T03:01:48.232Z,55907.20
2018-05-29T03:04:16.592Z,55911.31
2018-05-29T03:06:44.947Z,55905.14
2018-05-29T03:09:13.360Z,55910.28
2018-05-29T03:11:41.750Z,55901.03
2018-05-29T03:14:10.124Z,55896.91
2018-05-29T03:16:38.538Z,55913.36
2018-05-29T03:19:07.684Z,55891.77
2018-05-29T03:21:36.051Z,55891.77
2018-05-29T03:24:04.393Z,55895.89
2018-05-29T03:26:33.622Z,55905.14
2018-05-29T03:29:02.781Z,55889.72
2018-05-29T03:31:31.189Z,55918.50
2018-05-29T03:33:59.528Z,55904.11
2018-05-29T03:36:27.921Z,55877.38
2018-05-29T03:38:56.270Z,55890.75
2018-05-29T03:41:24.613Z,55880.46
2018-05-29T03:43:53.000Z,55892.80
2018-05-29T03:46:21.386Z,55882.52
2018-05-29T03:48:49.771Z,55906.17
2018-05-29T03:51:18.151Z,55910.28
2018-05-29T03:53:46.510Z,55920.56
2018-05-29T03:56:14.904Z,55913.36
2018-05-29T03:58:43.254Z,55905.14
2018-05-29T04:01:11.657Z,55897.94
2018-05-29T04:03:40.085Z,55886.63
2018-05-29T04:06:09.204Z,55917.48
2018-05-29T04:08:37.589Z,55909.25
2018-05-29T04:11:06.779Z,55880.46
2018-05-29T04:13:35.923Z,55905.14
2018-05-29T04:16:04.548Z,55904.11
2018-05-29T04:18:33.659Z,55913.36
2018-05-29T04:21:02.007Z,55889.72
2018-05-29T04:23:30.417Z,55920.56
2018-05-29T04:25:58.823Z,55898.97
2018-05-29T04:28:27.235Z,55901.03
2018-05-29T04:30:55.604Z,55886.63
2018-05-29T04:33:23.989Z,55892.80
2018-05-29T04:35:52.379Z,55907.20
2018-05-29T04:38:20.793Z,55875.32
2018-05-29T04:40:49.183Z,55898.97
2018-05-29T04:43:17.540Z,55864.01
2018-05-29T04:45:46.721Z,55897.94
2018-05-29T04:48:15.871Z,55897.94
2018-05-29T04:50:44.267Z,55880.46
2018-05-29T04:53:12.602Z,55886.63
2018-05-29T04:55:40.959Z,55872.24
2018-05-29T04:58:09.303Z,55885.61
2018-05-29T05:00:37.703Z,55881.49
2018-05-29T05:03:06.072Z,55893.83
2018-05-29T05:05:34.425Z,55911.31
2018-05-29T05:08:02.835Z,55883.55
2018-05-29T05:10:31.203Z,55866.07
2018-05-29T05:12:59.593Z,55861.95
2018-05-29T05:15:27.940Z,55898.97
2018-05-29T05:17:56.280Z,55887.66
2018-05-29T05:20:24.653Z,55902.05
2018-05-29T05:22:53.825Z,55853.73
2018-05-29T05:25:22.985Z,55873.27
2018-05-29T05:27:51.344Z,55875.32
2018-05-29T05:30:19.717Z,55898.97
2018-05-29T05:32:48.061Z,55877.38
2018-05-29T05:35:17.843Z,55870.18
2018-05-29T05:37:46.287Z,55874.29
2018-05-29T05:40:14.642Z,55892.80
2018-05-29T05:42:43.782Z,55887.66
2018-05-29T05:45:12.158Z,55765.31
2018-05-29T05:47:40.543Z,55709.79
2018-05-29T05:50:08.915Z,55685.11
2018-05-29T05:52:37.276Z,55666.61
2018-05-29T05:55:05.675Z,55646.04
2018-05-29T05:57:34.046Z,55684.08
2018-05-29T06:00:02.382Z,55672.77
2018-05-29T06:02:31.549Z,55661.46
2018-05-29T06:04:59.926Z,55678.94
2018-05-29T06:07:28.293Z,55651.18
2018-05-29T06:09:56.673Z,55608.00
2018-05-29T06:12:25.089Z,55621.37
2018-05-29T06:14:54.242Z,55650.16
2018-05-29T06:17:22.589Z,55600.80
2018-05-29T06:19:50.982Z,55610.06
2018-05-29T06:22:19.381Z,55604.92
2018-05-29T06:24:47.758Z,55598.75
2018-05-29T06:27:16.136Z,55611.09
2018-05-29T06:29:44.495Z,55612.11
2018-05-29T06:32:12.890Z,55604.92
2018-05-29T06:34:41.265Z,55585.38
2018-05-29T06:37:09.602Z,55602.86
2018-05-29T06:39:37.971Z,55622.39
2018-05-29T06:42:06.374Z,55622.39
2018-05-29T06:44:34.734Z,55656.32
2018-05-29T06:47:03.910Z,55735.49
2018-05-29T06:49:32.270Z,55795.12
2018-05-29T06:52:00.635Z,55811.57
2018-05-29T06:54:29.001Z,55810.55
2018-05-29T06:56:57.406Z,55808.49
2018-05-29T06:59:25.787Z,55809.52
2018-05-29T07:01:54.172Z,55850.64
2018-05-29T07:04:22.527Z,55832.14
2018-05-29T07:06:50.872Z,55828.02
2018-05-29T07:09:29.913Z,55856.81
2018-05-29T07:11:58.257Z,55842.42
2018-05-29T07:14:26.626Z,55835.22
2018-05-29T07:16:54.981Z,55861.95
2018-05-29T07:19:23.395Z,55820.83
2018-05-29T07:21:51.781Z,55852.70
2018-05-29T07:24:20.931Z,55838.31
2018-05-29T07:26:49.272Z,55823.91
2018-05-29T07:29:17.612Z,55821.86
2018-05-29T07:31:46.210Z,55814.66
2018-05-29T07:34:15.344Z,55845.50
2018-05-29T07:36:43.696Z,55825.97
2018-05-29T07:39:12.825Z,55835.22
2018-05-29T07:41:41.167Z,55843.45
2018-05-29T07:44:10.338Z,55837.28
2018-05-29T07:46:38.748Z,55820.83
2018-05-29T07:49:07.876Z,55816.71
2018-05-29T07:51:36.248Z,55840.36
2018-05-29T07:54:04.633Z,55831.11
2018-05-29T07:56:32.992Z,55833.17
2018-05-29T07:59:01.375Z,55808.49
2018-05-29T08:01:29.778Z,55838.31
2018-05-29T08:03:58.188Z,55798.21
2018-05-29T08:06:26.621Z,55813.63
2018-05-29T08:08:55.704Z,55812.60
2018-05-29T08:11:24.104Z,55837.28
2018-05-29T08:13:52.482Z,55845.50
2018-05-29T08:16:20.891Z,55845.50
2018-05-29T08:18:49.341Z,55821.86
2018-05-29T08:21:17.738Z,55808.49
2018-05-29T08:23:46.132Z,55788.95
2018-05-29T08:26:14.496Z,55812.60
2018-05-29T08:28:42.879Z,55788.95
2018-05-29T08:31:11.264Z,55802.32
2018-05-29T08:33:39.668Z,55800.27
2018-05-29T08:36:08.804Z,55799.24
2018-05-29T08:38:37.177Z,55805.41
2018-05-29T08:41:05.573Z,55751.94
2018-05-29T08:43:45.887Z,55708.76
2018-05-29T08:46:14.295Z,55658.38
2018-05-29T08:48:42.659Z,55635.76
2018-05-29T08:51:11.007Z,55622.39
2018-05-29T08:53:40.191Z,55620.34
2018-05-29T08:56:08.590Z,55590.52
2018-05-29T08:58:37.701Z,55604.92
2018-05-29T09:01:06.835Z,55608.00
2018-05-29T09:03:35.219Z,55613.14
2018-05-29T09:06:03.612Z,55590.52
2018-05-29T09:08:31.953Z,55593.61
2018-05-29T09:11:00.315Z,55590.52
2018-05-29T09:13:29.430Z,55606.97
2018-05-29T09:15:57.785Z,55596.69
2018-05-29T09:18:26.945Z,55592.58
2018-05-29T09:20:55.293Z,55603.89
2018-05-29T09:23:23.683Z,55584.36
2018-05-29T09:25:52.020Z,55620.34
2018-05-29T09:28:21.434Z,55621.37
2018-05-29T09:30:49.808Z,55633.70
2018-05-29T09:33:18.187Z,55621.37
2018-05-29T09:35:46.593Z,55631.65
2018-05-29T09:38:15.001Z,55650.16
2018-05-29T09:40:43.355Z,55649.12
2018-05-29T09:43:11.843Z,55646.04
2018-05-29T09:45:40.238Z,55642.96
2018-05-29T09:48:09.387Z,55623.42
2018-05-29T09:50:37.771Z,55652.21
2018-05-29T09:53:06.160Z,55652.21
2018-05-29T09:55:34.553Z,55660.44
2018-05-29T09:58:02.960Z,55643.98
2018-05-29T10:00:36.840Z,55654.27
2018-05-29T10:03:05.217Z,55676.89
2018-05-29T10:05:33.593Z,55663.52
2018-05-29T10:08:01.966Z,55662.49
2018-05-29T10:10:30.297Z,55658.38
2018-05-29T10:12:59.418Z,55673.80
2018-05-29T10:15:27.808Z,55686.14
2018-05-29T10:17:56.219Z,55697.45
2018-05-29T10:20:24.827Z,55693.34
2018-05-29T10:22:53.199Z,55709.79
2018-05-29T10:25:21.586Z,55724.18
2018-05-29T10:27:50.732Z,55757.08
2018-05-29T10:30:19.125Z,55764.28
2018-05-29T10:32:47.483Z,55779.70
2018-05-29T10:35:15.857Z,55780.73
2018-05-29T10:37:44.206Z,55791.01
2018-05-29T10:40:13.358Z,55742.69
2018-05-29T10:42:41.739Z,55781.76
2018-05-29T10:45:10.112Z,55777.64
2018-05-29T10:47:38.508Z,55774.56
2018-05-29T10:50:06.886Z,55746.80
2018-05-29T10:55:32.547Z,55779.70
2018-05-29T10:58:01.752Z,55773.53
2018-05-29T11:00:30.112Z,55783.81
2018-05-29T11:02:58.513Z,55783.81
2018-05-29T11:05:26.920Z,55777.64
2018-05-29T11:07:55.301Z,55775.59
2018-05-29T11:10:23.707Z,55761.20
2018-05-29T11:12:52.078Z,55782.79
2018-05-29T11:15:20.462Z,55777.64
2018-05-29T11:17:48.864Z,55779.70
2018-05-29T11:20:17.212Z,55773.53
2018-05-29T11:22:45.615Z,55780.73
2018-05-29T11:25:13.981Z,55763.25
2018-05-29T11:27:42.392Z,55775.59
2018-05-29T11:30:11.539Z,55743.71
2018-05-29T11:32:39.936Z,55800.27
2018-05-29T11:35:08.328Z,55779.70
2018-05-29T11:37:36.710Z,55768.39
2018-05-29T11:40:05.489Z,55764.28
2018-05-29T11:42:33.914Z,55783.81
2018-05-29T11:45:03.007Z,55788.95
2018-05-29T11:47:31.390Z,55754.00
2018-05-29T11:49:59.802Z,55765.31
2018-05-29T11:52:28.167Z,55787.93
2018-05-29T11:54:56.551Z,55782.79
2018-05-29T11:57:24.892Z,55775.59
2018-05-29T11:59:53.269Z,55767.36
2018-05-29T12:02:21.713Z,55757.08
2018-05-29T12:04:50.107Z,55759.14
2018-05-29T12:07:19.282Z,55761.20
2018-05-29T12:09:47.710Z,55744.74
2018-05-29T12:12:25.956Z,55754.00
2018-05-29T12:14:54.332Z,55756.05
2018-05-29T12:17:22.697Z,55762.22
2018-05-29T12:19:51.029Z,55748.86
2018-05-29T12:22:19.472Z,55754.00
2018-05-29T12:24:47.841Z,55736.52
2018-05-29T12:27:16.200Z,55767.36
2018-05-29T12:29:44.576Z,55741.66
2018-05-29T12:32:12.969Z,55739.60
2018-05-29T12:34:41.343Z,55751.94
2018-05-29T12:37:09.695Z,55736.52
2018-05-29T12:39:38.835Z,55762.22
2018-05-29T12:42:07.212Z,55730.35
2018-05-29T12:44:35.749Z,55739.60
2018-05-29T12:47:04.865Z,55726.24
2018-05-29T12:49:33.240Z,55745.77
2018-05-29T12:52:01.602Z,55726.24
2018-05-29T12:54:30.743Z,55730.35
2018-05-29T12:56:59.122Z,55752.97
2018-05-29T12:59:27.483Z,55723.15
2018-05-29T13:01:55.820Z,55728.29
2018-05-29T13:04:24.413Z,55715.96
2018-05-29T13:06:53.563Z,55724.18
2018-05-29T13:09:21.953Z,55720.07
2018-05-29T13:11:50.349Z,55729.32
2018-05-29T13:14:18.718Z,55728.29
2018-05-29T13:16:47.111Z,55719.04
2018-05-29T13:19:15.516Z,55697.45
2018-05-29T13:21:43.863Z,55734.46
2018-05-29T13:24:12.385Z,55703.62
2018-05-29T13:26:40.759Z,55701.56
2018-05-29T13:29:09.150Z,55693.34
2018-05-29T13:31:37.568Z,55693.34
2018-05-29T13:34:05.925Z,55740.63
2018-05-29T13:36:34.276Z,55730.35
2018-05-29T13:39:09.601Z,55767.36
2018-05-29T13:41:37.986Z,55718.01
2018-05-29T13:44:06.386Z,55713.90
2018-05-29T13:46:34.757Z,55712.87
2018-05-29T13:49:03.845Z,55703.62
2018-05-29T13:54:29.295Z,55698.48
2018-05-29T13:56:57.659Z,55748.86
2018-05-29T13:59:26.048Z,55740.63
2018-05-29T14:01:54.402Z,55724.18
2018-05-29T14:04:23.569Z,55713.90
2018-05-29T14:06:52.736Z,55720.07
2018-05-29T14:09:21.145Z,55759.14
2018-05-29T14:11:49.500Z,55765.31
2018-05-29T14:14:17.854Z,55757.08
2018-05-29T14:16:46.208Z,55759.14
2018-05-29T14:19:15.344Z,55811.57
2018-05-29T14:21:43.705Z,55724.18
2018-05-29T14:24:12.085Z,55763.25
2018-05-29T14:26:40.571Z,55758.11
2018-05-29T14:29:08.981Z,55721.10
2018-05-29T14:31:37.332Z,55757.08
2018-05-29T14:34:05.714Z,55731.38
2018-05-29T14:36:34.098Z,55750.91
2018-05-29T14:39:02.497Z,55786.90
2018-05-29T14:41:30.894Z,55786.90
2018-05-29T14:43:59.467Z,55763.25
2018-05-29T14:46:27.864Z,55782.79
2018-05-29T14:48:57.033Z,55726.24
2018-05-29T14:51:25.396Z,55711.84
2018-05-29T14:53:53.736Z,55747.83
2018-05-29T14:56:22.101Z,55763.25
2018-05-29T14:58:51.215Z,55740.63
2018-05-29T15:01:19.604Z,55734.46
2018-05-29T15:03:47.961Z,55736.52
2018-05-29T15:06:16.322Z,55735.49
2018-05-29T15:08:44.752Z,55734.46
2018-05-29T15:11:13.126Z,55752.97
2018-05-29T15:13:41.537Z,55783.81
2018-05-29T15:16:09.882Z,55760.17
2018-05-29T15:18:38.261Z,55757.08
2018-05-29T15:21:06.643Z,55744.74
2018-05-29T15:23:35.008Z,55755.02
2018-05-29T15:26:03.493Z,55774.56
2018-05-29T15:28:31.856Z,55775.59
2018-05-29T15:31:00.258Z,55769.42
2018-05-29T15:33:28.675Z,55757.08
2018-05-29T15:35:57.076Z,55742.69
2018-05-29T15:38:26.196Z,55743.71
2018-05-29T15:40:54.567Z,55744.74
2018-05-29T15:43:22.947Z,55755.02
2018-05-29T15:45:51.288Z,55755.02
2018-05-29T15:48:19.669Z,55746.80
2018-05-29T15:50:48.035Z,55742.69
2018-05-29T15:53:16.393Z,55751.94
2018-05-29T15:55:44.856Z,55744.74
2018-05-29T15:58:13.182Z,55744.74
2018-05-29T16:00:41.587Z,55742.69
2018-05-29T16:03:10.035Z,55778.67
2018-05-29T16:05:38.443Z,55771.48
2018-05-29T16:08:06.848Z,55767.36
2018-05-29T16:10:35.209Z,55761.20
2018-05-29T16:13:03.608Z,55746.80
2018-05-29T16:15:32.885Z,55744.74
2018-05-29T16:18:02.005Z,55735.49
2018-05-29T16:20:30.373Z,55765.31
2018-05-29T16:22:59.484Z,55770.45
2018-05-29T16:28:26.407Z,55782.79
2018-05-29T16:30:55.547Z,55762.22
2018-05-29T16:33:23.971Z,55775.59
2018-05-29T16:35:52.356Z,55761.20
2018-05-29T16:38:21.484Z,55772.50
2018-05-29T16:40:49.885Z,55782.79
2018-05-29T16:43:18.261Z,55775.59
2018-05-29T16:45:46.645Z,55794.10
2018-05-29T16:48:15.053Z,55777.64
2018-05-29T16:50:43.417Z,55765.31
2018-05-29T16:53:11.826Z,55791.01
2018-05-29T16:55:40.987Z,55798.21
2018-05-29T16:58:09.353Z,55784.84
2018-05-29T17:00:37.757Z,55802.32
2018-05-29T17:03:06.368Z,55791.01
2018-05-29T17:05:35.673Z,55787.93
2018-05-29T17:08:04.841Z,55806.43
2018-05-29T17:10:33.175Z,55820.83
2018-05-29T17:13:01.565Z,55794.10
2018-05-29T17:15:29.970Z,55793.07
2018-05-29T17:17:58.325Z,55808.49
2018-05-29T17:23:24.093Z,55785.87
2018-05-29T17:25:52.449Z,55783.81
2018-05-29T17:28:20.817Z,55788.95
2018-05-29T17:30:49.199Z,55816.71
2018-05-29T17:33:17.543Z,55808.49
2018-05-29T17:35:45.900Z,55815.69
2018-05-29T17:38:14.295Z,55804.38
2018-05-29T17:40:43.510Z,55827.00
2018-05-29T17:43:11.904Z,55810.55
2018-05-29T17:45:40.252Z,55791.01
2018-05-29T17:48:09.414Z,55816.71
2018-05-29T17:50:37.825Z,55802.32
2018-05-29T17:53:07.014Z,55811.57
2018-05-29T17:55:36.179Z,55816.71
2018-05-29T17:58:04.556Z,55833.17
2018-05-29T18:00:32.902Z,55814.66
2018-05-29T18:03:01.285Z,55813.63
2018-05-29T18:05:29.675Z,55821.86
2018-05-29T18:07:58.044Z,55814.66
2018-05-29T18:10:26.436Z,55829.05
2018-05-29T18:12:54.773Z,55809.52
2018-05-29T18:15:23.875Z,55815.69
2018-05-29T18:17:52.257Z,55805.41
2018-05-29T18:20:20.596Z,55815.69
2018-05-29T18:22:48.982Z,55828.02
2018-05-29T18:25:17.359Z,55823.91
2018-05-29T18:27:45.705Z,55831.11
2018-05-29T18:30:14.077Z,55794.10
2018-05-29T18:32:42.463Z,55818.77
2018-05-29T18:35:10.795Z,55820.83
2018-05-29T18:37:40.024Z,55807.46
2018-05-29T18:40:08.378Z,55829.05
2018-05-29T18:42:36.721Z,55825.97
2018-05-29T18:45:05.059Z,55827.00
2018-05-29T18:47:33.470Z,55833.17
2018-05-29T18:50:01.815Z,55820.83
2018-05-29T18:52:30.180Z,55804.38
2018-05-29T18:54:58.528Z,55832.14
2018-05-29T18:57:27.660Z,55819.80
2018-05-29T18:59:56.053Z,55851.68
2018-05-29T19:02:24.425Z,55808.49
2018-05-29T19:04:52.814Z,55810.55
2018-05-29T19:07:21.206Z,55829.05
2018-05-29T19:09:49.641Z,55835.22
2018-05-29T19:12:18.016Z,55818.77
2018-05-29T19:14:46.372Z,55821.86
2018-05-29T19:17:15.524Z,55836.25
2018-05-29T19:19:43.913Z,55814.66
2018-05-29T19:22:12.265Z,55842.42
2018-05-29T19:24:40.646Z,55814.66
2018-05-29T19:27:09.058Z,55816.71
2018-05-29T19:29:37.408Z,55815.69
2018-05-29T19:32:05.787Z,55820.83
2018-05-29T19:34:34.198Z,55824.94
2018-05-29T19:37:02.582Z,55821.86
2018-05-29T19:39:31.025Z,55833.17
2018-05-29T19:41:59.431Z,55839.34
2018-05-29T19:44:27.770Z,55824.94
2018-05-29T19:46:56.111Z,55860.93
2018-05-29T19:49:25.283Z,55824.94
2018-05-29T19:51:53.627Z,55838.31
2018-05-29T19:54:22.000Z,55835.22
2018-05-29T19:56:50.347Z,55837.28
2018-05-29T19:59:19.477Z,55828.02
2018-05-29T20:01:47.890Z,55835.22
2018-05-29T20:04:16.271Z,55806.43
2018-05-29T20:06:44.630Z,55837.28
2018-05-29T20:09:12.985Z,55838.31
2018-05-29T20:11:41.336Z,55843.45
2018-05-29T20:14:10.440Z,55829.05
2018-05-29T20:16:39.564Z,55836.25
2018-05-29T20:19:07.917Z,55839.34
2018-05-29T20:21:37.043Z,55832.14
2018-05-29T20:24:05.422Z,55836.25
2018-05-29T20:26:33.880Z,55832.14
2018-05-29T20:29:02.401Z,55823.91
2018-05-29T20:31:30.851Z,55845.50
2018-05-29T20:33:59.932Z,55836.25
2018-05-29T20:36:28.276Z,55824.94
2018-05-29T20:38:56.716Z,55849.62
2018-05-29T20:41:25.080Z,55831.11
2018-05-29T20:43:53.439Z,55849.62
2018-05-29T20:46:22.610Z,55851.68
2018-05-29T20:48:50.997Z,55841.39
2018-05-29T20:51:20.156Z,55849.62
2018-05-29T20:53:48.490Z,55827.00
2018-05-29T20:56:17.631Z,55841.39
2018-05-29T20:58:46.910Z,55845.50
2018-05-29T21:01:15.303Z,55835.22
2018-05-29T21:03:43.763Z,55815.69
2018-05-29T21:06:12.893Z,55810.55
2018-05-29T21:08:41.263Z,55822.88
2018-05-29T21:11:09.680Z,55830.08
2018-05-29T21:13:38.109Z,55846.53
2018-05-29T21:16:06.495Z,55835.22
2018-05-29T21:18:34.846Z,55846.53
2018-05-29T21:21:03.224Z,55831.11
2018-05-29T21:23:31.597Z,55857.84
2018-05-29T21:25:59.973Z,55841.39
2018-05-29T21:28:28.328Z,55868.12
2018-05-29T21:30:56.804Z,55847.56
2018-05-29T21:33:25.154Z,55836.25
2018-05-29T21:35:53.505Z,55828.02
2018-05-29T21:38:21.902Z,55833.17
2018-05-29T21:40:50.252Z,55853.73
2018-05-29T21:43:18.607Z,55840.36
2018-05-29T21:45:46.976Z,55872.24
2018-05-29T21:48:15.411Z,55843.45
2018-05-29T21:50:43.754Z,55841.39
2018-05-29T21:53:12.862Z,55845.50
2018-05-29T21:55:41.226Z,55873.27
2018-05-29T21:58:10.464Z,55854.76
2018-05-29T22:00:38.808Z,55851.68
2018-05-29T22:03:07.937Z,55845.50
2018-05-29T22:05:36.313Z,55833.17
2018-05-29T22:08:04.694Z,55832.14
2018-05-29T22:10:33.035Z,55851.68
2018-05-29T22:13:02.148Z,55835.22
2018-05-29T22:15:30.489Z,55864.01
2018-05-29T22:17:58.831Z,55815.69
2018-05-29T22:20:27.205Z,55849.62
2018-05-29T22:22:55.603Z,55858.87
2018-05-29T22:25:23.989Z,55859.90
2018-05-29T22:27:52.340Z,55859.90
2018-05-29T22:30:20.804Z,55827.00
2018-05-29T22:32:49.176Z,55839.34
2018-05-29T22:35:17.515Z,55836.25
2018-05-29T22:37:45.908Z,55854.76
2018-05-29T22:40:15.032Z,55872.24
2018-05-29T22:42:43.402Z,55858.87
2018-05-29T22:45:11.775Z,55853.73
2018-05-29T22:47:40.885Z,55859.90
2018-05-29T22:50:09.243Z,55827.00
2018-05-29T22:52:38.398Z,55856.81
2018-05-29T22:55:06.785Z,55847.56
2018-05-29T22:57:35.145Z,55845.50
2018-05-29T23:00:03.518Z,55831.11
2018-05-29T23:02:31.892Z,55850.64
2018-05-29T23:05:00.264Z,55831.11
2018-05-29T23:07:28.653Z,55845.50
2018-05-29T23:09:57.026Z,55874.29
2018-05-29T23:12:25.378Z,55872.24
2018-05-29T23:14:53.740Z,55845.50
2018-05-29T23:17:22.866Z,55874.29
2018-05-29T23:19:51.211Z,55828.02
2018-05-29T23:22:20.347Z,55880.46
2018-05-29T23:24:48.715Z,55881.49
2018-05-29T23:27:17.124Z,55860.93
2018-05-29T23:29:45.473Z,55892.80
2018-05-29T23:32:13.833Z,55864.01
2018-05-29T23:34:42.202Z,55893.83
2018-05-29T23:37:11.352Z,55876.35
2018-05-29T23:39:39.750Z,55844.48
2018-05-29T23:42:08.903Z,55874.29
2018-05-29T23:44:37.298Z,55878.41
2018-05-29T23:47:05.684Z,55874.29
2018-05-29T23:49:34.056Z,55894.86
2018-05-29T23:52:02.423Z,55865.04
2018-05-29T23:54:30.821Z,55859.90
2018-05-29T23:56:59.199Z,55858.87
2018-05-29T23:59:27.585Z,55872.24
